sensor_id;sensor_type;location;lat;lon;timestamp;P1;durP1;ratioP1;P2;durP2;ratioP2
10134;SDS011;5107;48.850;8.924;2024-01-06T00:00:22;8.10;;;1.60;;
10134;SDS011;5107;48.850;8.924;2024-01-06T00:02:48;3.47;;;1.77;;
10134;SDS011;5107;48.850;8.924;2024-01-06T00:05:14;4.90;;;1.70;;
10134;SDS011;5107;48.850;8.924;2024-01-06T00:07:39;5.13;;;1.77;;
10134;SDS011;5107;48.850;8.924;2024-01-06T00:10:05;3.90;;;1.73;;
10134;SDS011;5107;48.850;8.924;2024-01-06T00:12:31;3.37;;;1.60;;
10134;SDS011;5107;48.850;8.924;2024-01-06T00:15:03;3.47;;;1.80;;
10134;SDS011;5107;48.850;8.924;2024-01-06T00:17:29;3.77;;;1.60;;
10134;SDS011;5107;48.850;8.924;2024-01-06T00:19:54;3.03;;;1.73;;
10134;SDS011;5107;48.850;8.924;2024-01-06T00:22:20;4.27;;;1.77;;
10134;SDS011;5107;48.850;8.924;2024-01-06T00:24:45;3.33;;;1.60;;
10134;SDS011;5107;48.850;8.924;2024-01-06T00:27:13;4.87;;;1.70;;
10134;SDS011;5107;48.850;8.924;2024-01-06T00:29:40;3.43;;;1.50;;
10134;SDS011;5107;48.850;8.924;2024-01-06T00:32:11;3.33;;;1.80;;
10134;SDS011;5107;48.850;8.924;2024-01-06T00:34:42;4.57;;;1.80;;
10134;SDS011;5107;48.850;8.924;2024-01-06T00:37:08;5.13;;;1.80;;
10134;SDS011;5107;48.850;8.924;2024-01-06T00:39:33;2.57;;;1.60;;
10134;SDS011;5107;48.850;8.924;2024-01-06T00:41:59;2.77;;;1.73;;
10134;SDS011;5107;48.850;8.924;2024-01-06T00:44:41;3.00;;;1.50;;
10134;SDS011;5107;48.850;8.924;2024-01-06T00:47:10;4.47;;;1.60;;
10134;SDS011;5107;48.850;8.924;2024-01-06T00:49:36;2.67;;;1.70;;
10134;SDS011;5107;48.850;8.924;2024-01-06T00:52:01;3.47;;;1.70;;
10134;SDS011;5107;48.850;8.924;2024-01-06T00:54:30;3.70;;;1.47;;
10134;SDS011;5107;48.850;8.924;2024-01-06T00:57:00;6.53;;;1.70;;
10134;SDS011;5107;48.850;8.924;2024-01-06T00:59:26;2.83;;;1.70;;
10134;SDS011;5107;48.850;8.924;2024-01-06T01:01:57;3.20;;;1.47;;
10134;SDS011;5107;48.850;8.924;2024-01-06T01:04:36;4.43;;;1.70;;
10134;SDS011;5107;48.850;8.924;2024-01-06T01:07:01;2.40;;;1.50;;
10134;SDS011;5107;48.850;8.924;2024-01-06T01:09:30;5.13;;;1.80;;
10134;SDS011;5107;48.850;8.924;2024-01-06T01:12:00;3.77;;;1.57;;
10134;SDS011;5107;48.850;8.924;2024-01-06T01:14:42;4.33;;;1.50;;
10134;SDS011;5107;48.850;8.924;2024-01-06T01:17:13;2.40;;;1.40;;
10134;SDS011;5107;48.850;8.924;2024-01-06T01:19:38;3.70;;;1.70;;
10134;SDS011;5107;48.850;8.924;2024-01-06T01:22:07;3.20;;;2.07;;
10134;SDS011;5107;48.850;8.924;2024-01-06T01:24:32;3.60;;;1.43;;
10134;SDS011;5107;48.850;8.924;2024-01-06T01:26:58;5.93;;;2.20;;
10134;SDS011;5107;48.850;8.924;2024-01-06T01:29:34;4.90;;;2.23;;
10134;SDS011;5107;48.850;8.924;2024-01-06T01:32:03;6.17;;;2.10;;
10134;SDS011;5107;48.850;8.924;2024-01-06T01:34:29;5.23;;;2.27;;
10134;SDS011;5107;48.850;8.924;2024-01-06T01:36:55;7.13;;;2.10;;
10134;SDS011;5107;48.850;8.924;2024-01-06T01:39:26;4.00;;;1.93;;
10134;SDS011;5107;48.850;8.924;2024-01-06T01:41:51;5.03;;;1.83;;
10134;SDS011;5107;48.850;8.924;2024-01-06T01:44:17;4.80;;;1.80;;
10134;SDS011;5107;48.850;8.924;2024-01-06T01:46:43;4.30;;;1.87;;
10134;SDS011;5107;48.850;8.924;2024-01-06T01:49:08;3.50;;;1.63;;
10134;SDS011;5107;48.850;8.924;2024-01-06T01:51:34;3.33;;;1.60;;
10134;SDS011;5107;48.850;8.924;2024-01-06T01:54:01;4.67;;;1.80;;
10134;SDS011;5107;48.850;8.924;2024-01-06T01:56:27;4.67;;;1.40;;
10134;SDS011;5107;48.850;8.924;2024-01-06T01:58:58;3.23;;;1.60;;
10134;SDS011;5107;48.850;8.924;2024-01-06T02:01:26;4.37;;;1.73;;
10134;SDS011;5107;48.850;8.924;2024-01-06T02:03:51;7.83;;;1.80;;
10134;SDS011;5107;48.850;8.924;2024-01-06T02:06:17;3.33;;;1.33;;
10134;SDS011;5107;48.850;8.924;2024-01-06T02:08:43;4.03;;;1.53;;
10134;SDS011;5107;48.850;8.924;2024-01-06T02:11:08;2.13;;;1.37;;
10134;SDS011;5107;48.850;8.924;2024-01-06T02:13:34;4.00;;;1.70;;
10134;SDS011;5107;48.850;8.924;2024-01-06T02:16:03;5.93;;;1.97;;
10134;SDS011;5107;48.850;8.924;2024-01-06T02:18:30;6.33;;;1.20;;
10134;SDS011;5107;48.850;8.924;2024-01-06T02:20:59;3.27;;;1.40;;
10134;SDS011;5107;48.850;8.924;2024-01-06T02:23:26;8.17;;;1.80;;
10134;SDS011;5107;48.850;8.924;2024-01-06T02:25:52;3.57;;;1.40;;
10134;SDS011;5107;48.850;8.924;2024-01-06T02:28:18;4.30;;;1.80;;
10134;SDS011;5107;48.850;8.924;2024-01-06T02:30:46;3.27;;;1.63;;
10134;SDS011;5107;48.850;8.924;2024-01-06T02:33:11;3.97;;;1.40;;
10134;SDS011;5107;48.850;8.924;2024-01-06T02:35:37;3.50;;;1.40;;
10134;SDS011;5107;48.850;8.924;2024-01-06T02:38:02;2.07;;;1.43;;
10134;SDS011;5107;48.850;8.924;2024-01-06T02:40:28;4.47;;;1.53;;
10134;SDS011;5107;48.850;8.924;2024-01-06T02:42:53;4.80;;;1.47;;
10134;SDS011;5107;48.850;8.924;2024-01-06T02:45:19;5.50;;;1.80;;
10134;SDS011;5107;48.850;8.924;2024-01-06T02:47:44;3.40;;;1.43;;
10134;SDS011;5107;48.850;8.924;2024-01-06T02:50:10;2.50;;;1.40;;
10134;SDS011;5107;48.850;8.924;2024-01-06T02:52:35;2.83;;;1.50;;
10134;SDS011;5107;48.850;8.924;2024-01-06T02:55:01;3.83;;;1.80;;
10134;SDS011;5107;48.850;8.924;2024-01-06T02:57:29;5.07;;;1.90;;
10134;SDS011;5107;48.850;8.924;2024-01-06T02:59:55;7.50;;;1.60;;
10134;SDS011;5107;48.850;8.924;2024-01-06T03:02:21;6.63;;;1.80;;
10134;SDS011;5107;48.850;8.924;2024-01-06T03:04:47;6.13;;;1.93;;
10134;SDS011;5107;48.850;8.924;2024-01-06T03:07:12;2.80;;;1.60;;
10134;SDS011;5107;48.850;8.924;2024-01-06T03:09:37;4.07;;;1.50;;
10134;SDS011;5107;48.850;8.924;2024-01-06T03:12:06;2.80;;;1.53;;
10134;SDS011;5107;48.850;8.924;2024-01-06T03:14:33;4.37;;;1.70;;
10134;SDS011;5107;48.850;8.924;2024-01-06T03:16:59;5.30;;;1.83;;
10134;SDS011;5107;48.850;8.924;2024-01-06T03:19:24;3.00;;;1.40;;
10134;SDS011;5107;48.850;8.924;2024-01-06T03:21:52;4.60;;;1.40;;
10134;SDS011;5107;48.850;8.924;2024-01-06T03:24:17;4.77;;;1.90;;
10134;SDS011;5107;48.850;8.924;2024-01-06T03:26:43;5.97;;;2.00;;
10134;SDS011;5107;48.850;8.924;2024-01-06T03:29:08;3.07;;;1.47;;
10134;SDS011;5107;48.850;8.924;2024-01-06T03:31:33;4.77;;;1.50;;
10134;SDS011;5107;48.850;8.924;2024-01-06T03:33:59;2.70;;;1.30;;
10134;SDS011;5107;48.850;8.924;2024-01-06T03:36:24;3.30;;;1.50;;
10134;SDS011;5107;48.850;8.924;2024-01-06T03:38:50;4.50;;;1.70;;
10134;SDS011;5107;48.850;8.924;2024-01-06T03:41:15;3.03;;;1.73;;
10134;SDS011;5107;48.850;8.924;2024-01-06T03:43:41;5.87;;;1.83;;
10134;SDS011;5107;48.850;8.924;2024-01-06T03:46:06;5.40;;;1.43;;
10134;SDS011;5107;48.850;8.924;2024-01-06T03:48:31;4.57;;;1.70;;
10134;SDS011;5107;48.850;8.924;2024-01-06T03:50:57;5.57;;;1.40;;
10134;SDS011;5107;48.850;8.924;2024-01-06T03:53:24;3.73;;;1.73;;
10134;SDS011;5107;48.850;8.924;2024-01-06T03:55:49;4.97;;;1.30;;
10134;SDS011;5107;48.850;8.924;2024-01-06T03:58:15;3.50;;;1.70;;
10134;SDS011;5107;48.850;8.924;2024-01-06T04:00:40;4.50;;;1.30;;
10134;SDS011;5107;48.850;8.924;2024-01-06T04:03:05;2.53;;;1.37;;
10134;SDS011;5107;48.850;8.924;2024-01-06T04:05:31;2.30;;;1.37;;
10134;SDS011;5107;48.850;8.924;2024-01-06T04:07:57;2.70;;;1.53;;
10134;SDS011;5107;48.850;8.924;2024-01-06T04:10:22;4.23;;;1.50;;
10134;SDS011;5107;48.850;8.924;2024-01-06T04:12:48;2.70;;;1.40;;
10134;SDS011;5107;48.850;8.924;2024-01-06T04:15:13;2.83;;;1.23;;
10134;SDS011;5107;48.850;8.924;2024-01-06T04:17:38;3.97;;;1.47;;
10134;SDS011;5107;48.850;8.924;2024-01-06T04:20:04;3.97;;;1.60;;
10134;SDS011;5107;48.850;8.924;2024-01-06T04:22:30;5.97;;;1.70;;
10134;SDS011;5107;48.850;8.924;2024-01-06T04:24:55;4.33;;;1.50;;
10134;SDS011;5107;48.850;8.924;2024-01-06T04:27:21;2.83;;;1.37;;
10134;SDS011;5107;48.850;8.924;2024-01-06T04:29:46;4.40;;;1.63;;
10134;SDS011;5107;48.850;8.924;2024-01-06T04:32:12;4.43;;;1.60;;
10134;SDS011;5107;48.850;8.924;2024-01-06T04:34:37;2.87;;;1.43;;
10134;SDS011;5107;48.850;8.924;2024-01-06T04:37:02;5.30;;;1.60;;
10134;SDS011;5107;48.850;8.924;2024-01-06T04:39:28;6.93;;;1.40;;
10134;SDS011;5107;48.850;8.924;2024-01-06T04:41:53;2.57;;;1.80;;
10134;SDS011;5107;48.850;8.924;2024-01-06T04:44:19;4.37;;;1.80;;
10134;SDS011;5107;48.850;8.924;2024-01-06T04:46:45;2.70;;;1.60;;
10134;SDS011;5107;48.850;8.924;2024-01-06T04:49:10;3.80;;;1.53;;
10134;SDS011;5107;48.850;8.924;2024-01-06T04:51:36;4.67;;;1.60;;
10134;SDS011;5107;48.850;8.924;2024-01-06T04:54:01;2.77;;;1.40;;
10134;SDS011;5107;48.850;8.924;2024-01-06T04:56:26;5.87;;;1.80;;
10134;SDS011;5107;48.850;8.924;2024-01-06T04:58:52;2.73;;;1.97;;
10134;SDS011;5107;48.850;8.924;2024-01-06T05:01:17;3.27;;;1.50;;
10134;SDS011;5107;48.850;8.924;2024-01-06T05:03:42;3.37;;;1.87;;
10134;SDS011;5107;48.850;8.924;2024-01-06T05:06:08;4.33;;;1.73;;
10134;SDS011;5107;48.850;8.924;2024-01-06T05:08:33;5.10;;;2.13;;
10134;SDS011;5107;48.850;8.924;2024-01-06T05:10:58;8.23;;;2.30;;
10134;SDS011;5107;48.850;8.924;2024-01-06T05:13:24;4.03;;;2.00;;
10134;SDS011;5107;48.850;8.924;2024-01-06T05:15:49;6.77;;;2.30;;
10134;SDS011;5107;48.850;8.924;2024-01-06T05:18:15;5.80;;;2.10;;
10134;SDS011;5107;48.850;8.924;2024-01-06T05:20:40;3.60;;;2.23;;
10134;SDS011;5107;48.850;8.924;2024-01-06T05:23:08;3.90;;;2.50;;
10134;SDS011;5107;48.850;8.924;2024-01-06T05:25:34;4.50;;;2.23;;
10134;SDS011;5107;48.850;8.924;2024-01-06T05:27:59;4.90;;;2.50;;
10134;SDS011;5107;48.850;8.924;2024-01-06T05:30:24;5.33;;;2.37;;
10134;SDS011;5107;48.850;8.924;2024-01-06T05:32:50;6.20;;;2.90;;
10134;SDS011;5107;48.850;8.924;2024-01-06T05:35:15;3.40;;;2.33;;
10134;SDS011;5107;48.850;8.924;2024-01-06T05:37:41;5.83;;;2.67;;
10134;SDS011;5107;48.850;8.924;2024-01-06T05:40:07;7.93;;;2.77;;
10134;SDS011;5107;48.850;8.924;2024-01-06T05:42:33;5.97;;;2.67;;
10134;SDS011;5107;48.850;8.924;2024-01-06T05:44:58;7.07;;;2.83;;
10134;SDS011;5107;48.850;8.924;2024-01-06T05:47:24;6.70;;;2.90;;
10134;SDS011;5107;48.850;8.924;2024-01-06T05:49:49;4.60;;;2.77;;
10134;SDS011;5107;48.850;8.924;2024-01-06T05:52:15;4.90;;;2.80;;
10134;SDS011;5107;48.850;8.924;2024-01-06T05:54:40;4.87;;;2.67;;
10134;SDS011;5107;48.850;8.924;2024-01-06T05:57:07;3.50;;;2.23;;
10134;SDS011;5107;48.850;8.924;2024-01-06T05:59:33;6.43;;;2.80;;
10134;SDS011;5107;48.850;8.924;2024-01-06T06:01:58;4.20;;;2.50;;
10134;SDS011;5107;48.850;8.924;2024-01-06T06:04:23;9.13;;;2.90;;
10134;SDS011;5107;48.850;8.924;2024-01-06T06:06:49;2.67;;;1.93;;
10134;SDS011;5107;48.850;8.924;2024-01-06T06:09:14;1.77;;;1.40;;
10134;SDS011;5107;48.850;8.924;2024-01-06T06:11:40;3.87;;;2.27;;
10134;SDS011;5107;48.850;8.924;2024-01-06T06:14:06;4.23;;;2.10;;
10134;SDS011;5107;48.850;8.924;2024-01-06T06:16:31;6.63;;;3.50;;
10134;SDS011;5107;48.850;8.924;2024-01-06T06:18:56;5.43;;;3.60;;
10134;SDS011;5107;48.850;8.924;2024-01-06T06:21:23;3.97;;;2.17;;
10134;SDS011;5107;48.850;8.924;2024-01-06T06:23:48;2.50;;;2.30;;
10134;SDS011;5107;48.850;8.924;2024-01-06T06:26:14;3.53;;;2.43;;
10134;SDS011;5107;48.850;8.924;2024-01-06T06:28:39;6.90;;;4.40;;
10134;SDS011;5107;48.850;8.924;2024-01-06T06:31:04;5.70;;;4.10;;
10134;SDS011;5107;48.850;8.924;2024-01-06T06:33:30;4.90;;;3.07;;
10134;SDS011;5107;48.850;8.924;2024-01-06T06:35:55;1.37;;;1.27;;
10134;SDS011;5107;48.850;8.924;2024-01-06T06:38:20;2.77;;;2.00;;
10134;SDS011;5107;48.850;8.924;2024-01-06T06:40:49;1.97;;;1.47;;
10134;SDS011;5107;48.850;8.924;2024-01-06T06:43:14;3.10;;;1.87;;
10134;SDS011;5107;48.850;8.924;2024-01-06T06:45:39;1.90;;;1.80;;
10134;SDS011;5107;48.850;8.924;2024-01-06T06:48:05;2.10;;;1.90;;
10134;SDS011;5107;48.850;8.924;2024-01-06T06:50:32;3.77;;;2.20;;
10134;SDS011;5107;48.850;8.924;2024-01-06T06:52:57;3.27;;;2.10;;
10134;SDS011;5107;48.850;8.924;2024-01-06T06:55:24;3.90;;;2.33;;
10134;SDS011;5107;48.850;8.924;2024-01-06T06:57:49;3.33;;;2.27;;
10134;SDS011;5107;48.850;8.924;2024-01-06T07:00:14;1.63;;;1.53;;
10134;SDS011;5107;48.850;8.924;2024-01-06T07:02:41;2.83;;;1.40;;
10134;SDS011;5107;48.850;8.924;2024-01-06T07:05:06;2.10;;;1.90;;
10134;SDS011;5107;48.850;8.924;2024-01-06T07:07:32;2.13;;;1.30;;
10134;SDS011;5107;48.850;8.924;2024-01-06T07:10:00;2.30;;;1.80;;
10134;SDS011;5107;48.850;8.924;2024-01-06T07:12:26;2.70;;;1.57;;
10134;SDS011;5107;48.850;8.924;2024-01-06T07:14:52;1.90;;;1.63;;
10134;SDS011;5107;48.850;8.924;2024-01-06T07:17:17;3.20;;;1.67;;
10134;SDS011;5107;48.850;8.924;2024-01-06T07:19:43;2.07;;;1.40;;
10134;SDS011;5107;48.850;8.924;2024-01-06T07:22:11;3.27;;;1.80;;
10134;SDS011;5107;48.850;8.924;2024-01-06T07:24:36;1.80;;;1.70;;
10134;SDS011;5107;48.850;8.924;2024-01-06T07:27:02;2.03;;;1.30;;
10134;SDS011;5107;48.850;8.924;2024-01-06T07:29:28;2.80;;;2.00;;
10134;SDS011;5107;48.850;8.924;2024-01-06T07:31:54;2.30;;;1.87;;
10134;SDS011;5107;48.850;8.924;2024-01-06T07:34:19;2.47;;;1.90;;
10134;SDS011;5107;48.850;8.924;2024-01-06T07:36:44;1.90;;;1.63;;
10134;SDS011;5107;48.850;8.924;2024-01-06T07:39:10;2.90;;;1.60;;
10134;SDS011;5107;48.850;8.924;2024-01-06T07:41:35;1.93;;;1.60;;
10134;SDS011;5107;48.850;8.924;2024-01-06T07:44:00;1.97;;;1.30;;
10134;SDS011;5107;48.850;8.924;2024-01-06T07:46:27;1.60;;;1.50;;
10134;SDS011;5107;48.850;8.924;2024-01-06T07:48:53;2.93;;;2.07;;
10134;SDS011;5107;48.850;8.924;2024-01-06T07:51:19;2.53;;;1.70;;
10134;SDS011;5107;48.850;8.924;2024-01-06T07:53:44;1.97;;;1.70;;
10134;SDS011;5107;48.850;8.924;2024-01-06T07:56:09;2.13;;;1.70;;
10134;SDS011;5107;48.850;8.924;2024-01-06T07:58:35;3.23;;;1.73;;
10134;SDS011;5107;48.850;8.924;2024-01-06T08:01:00;2.83;;;1.60;;
10134;SDS011;5107;48.850;8.924;2024-01-06T08:03:26;2.07;;;1.50;;
10134;SDS011;5107;48.850;8.924;2024-01-06T08:05:52;2.03;;;1.50;;
10134;SDS011;5107;48.850;8.924;2024-01-06T08:08:17;2.23;;;1.70;;
10134;SDS011;5107;48.850;8.924;2024-01-06T08:10:43;1.70;;;1.10;;
10134;SDS011;5107;48.850;8.924;2024-01-06T08:13:09;2.03;;;1.40;;
10134;SDS011;5107;48.850;8.924;2024-01-06T08:15:34;2.10;;;1.90;;
10134;SDS011;5107;48.850;8.924;2024-01-06T08:17:59;2.37;;;2.10;;
10134;SDS011;5107;48.850;8.924;2024-01-06T08:20:25;4.63;;;3.30;;
10134;SDS011;5107;48.850;8.924;2024-01-06T08:22:50;4.97;;;3.30;;
10134;SDS011;5107;48.850;8.924;2024-01-06T08:25:16;5.27;;;2.93;;
10134;SDS011;5107;48.850;8.924;2024-01-06T08:27:42;2.40;;;1.90;;
10134;SDS011;5107;48.850;8.924;2024-01-06T08:30:10;1.47;;;1.37;;
10134;SDS011;5107;48.850;8.924;2024-01-06T08:32:36;1.80;;;1.57;;
10134;SDS011;5107;48.850;8.924;2024-01-06T08:35:02;5.40;;;4.33;;
10134;SDS011;5107;48.850;8.924;2024-01-06T08:37:27;5.50;;;3.90;;
10134;SDS011;5107;48.850;8.924;2024-01-06T08:39:53;4.63;;;3.20;;
10134;SDS011;5107;48.850;8.924;2024-01-06T08:42:18;3.27;;;2.97;;
10134;SDS011;5107;48.850;8.924;2024-01-06T08:44:43;3.10;;;2.40;;
10134;SDS011;5107;48.850;8.924;2024-01-06T08:47:09;2.10;;;1.90;;
10134;SDS011;5107;48.850;8.924;2024-01-06T08:49:34;2.80;;;2.50;;
10134;SDS011;5107;48.850;8.924;2024-01-06T08:52:00;9.97;;;9.07;;
10134;SDS011;5107;48.850;8.924;2024-01-06T08:54:25;2.10;;;1.87;;
10134;SDS011;5107;48.850;8.924;2024-01-06T08:56:50;2.83;;;2.30;;
10134;SDS011;5107;48.850;8.924;2024-01-06T08:59:17;2.23;;;2.03;;
10134;SDS011;5107;48.850;8.924;2024-01-06T09:01:42;2.77;;;2.07;;
10134;SDS011;5107;48.850;8.924;2024-01-06T09:04:08;4.63;;;2.03;;
10134;SDS011;5107;48.850;8.924;2024-01-06T09:06:36;1.70;;;1.60;;
10134;SDS011;5107;48.850;8.924;2024-01-06T09:09:01;1.40;;;1.30;;
10134;SDS011;5107;48.850;8.924;2024-01-06T09:11:27;2.10;;;1.40;;
10134;SDS011;5107;48.850;8.924;2024-01-06T09:13:52;1.67;;;1.20;;
10134;SDS011;5107;48.850;8.924;2024-01-06T09:16:18;2.47;;;1.47;;
10134;SDS011;5107;48.850;8.924;2024-01-06T09:18:44;2.20;;;1.40;;
10134;SDS011;5107;48.850;8.924;2024-01-06T09:21:09;2.57;;;1.40;;
10134;SDS011;5107;48.850;8.924;2024-01-06T09:23:35;1.80;;;1.50;;
10134;SDS011;5107;48.850;8.924;2024-01-06T09:26:01;3.23;;;1.90;;
10134;SDS011;5107;48.850;8.924;2024-01-06T09:28:26;1.77;;;1.27;;
10134;SDS011;5107;48.850;8.924;2024-01-06T09:30:52;1.80;;;1.70;;
10134;SDS011;5107;48.850;8.924;2024-01-06T09:33:20;2.43;;;1.97;;
10134;SDS011;5107;48.850;8.924;2024-01-06T09:35:46;2.67;;;1.60;;
10134;SDS011;5107;48.850;8.924;2024-01-06T09:38:12;3.83;;;3.10;;
10134;SDS011;5107;48.850;8.924;2024-01-06T09:40:41;2.40;;;1.87;;
10134;SDS011;5107;48.850;8.924;2024-01-06T09:43:08;3.37;;;1.90;;
10134;SDS011;5107;48.850;8.924;2024-01-06T09:45:34;3.17;;;1.90;;
10134;SDS011;5107;48.850;8.924;2024-01-06T09:47:59;2.30;;;1.90;;
10134;SDS011;5107;48.850;8.924;2024-01-06T09:50:31;4.07;;;3.47;;
10134;SDS011;5107;48.850;8.924;2024-01-06T09:52:58;1.80;;;1.70;;
10134;SDS011;5107;48.850;8.924;2024-01-06T09:55:30;2.87;;;2.00;;
10134;SDS011;5107;48.850;8.924;2024-01-06T09:57:56;2.57;;;1.80;;
10134;SDS011;5107;48.850;8.924;2024-01-06T10:00:21;3.27;;;2.00;;
10134;SDS011;5107;48.850;8.924;2024-01-06T10:02:47;2.13;;;1.90;;
10134;SDS011;5107;48.850;8.924;2024-01-06T10:05:14;2.53;;;2.33;;
10134;SDS011;5107;48.850;8.924;2024-01-06T10:07:41;4.43;;;2.57;;
10134;SDS011;5107;48.850;8.924;2024-01-06T10:10:08;2.43;;;2.23;;
10134;SDS011;5107;48.850;8.924;2024-01-06T10:12:36;2.50;;;2.30;;
10134;SDS011;5107;48.850;8.924;2024-01-06T10:15:03;2.53;;;2.33;;
10134;SDS011;5107;48.850;8.924;2024-01-06T10:17:28;2.50;;;2.30;;
10134;SDS011;5107;48.850;8.924;2024-01-06T10:19:54;2.73;;;2.40;;
10134;SDS011;5107;48.850;8.924;2024-01-06T10:22:19;5.87;;;2.33;;
10134;SDS011;5107;48.850;8.924;2024-01-06T10:24:45;2.73;;;2.40;;
10134;SDS011;5107;48.850;8.924;2024-01-06T10:27:11;2.47;;;2.23;;
10134;SDS011;5107;48.850;8.924;2024-01-06T10:29:36;2.60;;;2.40;;
10134;SDS011;5107;48.850;8.924;2024-01-06T10:32:02;4.40;;;3.20;;
10134;SDS011;5107;48.850;8.924;2024-01-06T10:34:28;3.23;;;2.50;;
10134;SDS011;5107;48.850;8.924;2024-01-06T10:36:54;3.10;;;2.80;;
10134;SDS011;5107;48.850;8.924;2024-01-06T10:39:20;3.67;;;2.60;;
10134;SDS011;5107;48.850;8.924;2024-01-06T10:41:47;3.57;;;2.50;;
10134;SDS011;5107;48.850;8.924;2024-01-06T10:44:14;2.90;;;2.60;;
10134;SDS011;5107;48.850;8.924;2024-01-06T10:46:40;3.03;;;2.57;;
10134;SDS011;5107;48.850;8.924;2024-01-06T10:49:08;3.13;;;2.83;;
10134;SDS011;5107;48.850;8.924;2024-01-06T10:51:36;3.77;;;2.93;;
10134;SDS011;5107;48.850;8.924;2024-01-06T10:54:02;4.10;;;2.67;;
10134;SDS011;5107;48.850;8.924;2024-01-06T10:56:29;4.17;;;3.70;;
10134;SDS011;5107;48.850;8.924;2024-01-06T10:58:55;4.83;;;3.10;;
10134;SDS011;5107;48.850;8.924;2024-01-06T11:01:22;5.83;;;3.40;;
10134;SDS011;5107;48.850;8.924;2024-01-06T11:03:52;5.07;;;4.57;;
10134;SDS011;5107;48.850;8.924;2024-01-06T11:06:19;4.37;;;3.40;;
10134;SDS011;5107;48.850;8.924;2024-01-06T11:09:29;4.20;;;3.40;;
10134;SDS011;5107;48.850;8.924;2024-01-06T11:11:49;3.10;;;2.80;;
10134;SDS011;5107;48.850;8.924;2024-01-06T11:14:22;4.27;;;3.73;;
10134;SDS011;5107;48.850;8.924;2024-01-06T11:16:49;4.10;;;3.53;;
10134;SDS011;5107;48.850;8.924;2024-01-06T11:19:57;5.60;;;4.07;;
10134;SDS011;5107;48.850;8.924;2024-01-06T11:24:54;6.47;;;4.67;;
10134;SDS011;5107;48.850;8.924;2024-01-06T11:27:24;5.43;;;4.33;;
10134;SDS011;5107;48.850;8.924;2024-01-06T11:29:54;7.00;;;4.70;;
10134;SDS011;5107;48.850;8.924;2024-01-06T11:32:24;4.30;;;3.90;;
10134;SDS011;5107;48.850;8.924;2024-01-06T11:34:54;4.10;;;3.70;;
10134;SDS011;5107;48.850;8.924;2024-01-06T11:40:10;3.87;;;3.47;;
10134;SDS011;5107;48.850;8.924;2024-01-06T11:45:35;3.33;;;3.03;;
10134;SDS011;5107;48.850;8.924;2024-01-06T11:48:03;3.93;;;3.53;;
10134;SDS011;5107;48.850;8.924;2024-01-06T11:50:41;3.80;;;3.20;;
10134;SDS011;5107;48.850;8.924;2024-01-06T11:53:07;6.50;;;3.60;;
10134;SDS011;5107;48.850;8.924;2024-01-06T11:55:34;3.73;;;3.40;;
10134;SDS011;5107;48.850;8.924;2024-01-06T11:58:03;4.27;;;3.50;;
10134;SDS011;5107;48.850;8.924;2024-01-06T12:00:30;3.77;;;3.20;;
10134;SDS011;5107;48.850;8.924;2024-01-06T12:03:01;4.27;;;3.70;;
10134;SDS011;5107;48.850;8.924;2024-01-06T12:05:27;4.30;;;3.83;;
10134;SDS011;5107;48.850;8.924;2024-01-06T12:07:56;5.50;;;4.03;;
10134;SDS011;5107;48.850;8.924;2024-01-06T12:10:23;4.10;;;3.40;;
10134;SDS011;5107;48.850;8.924;2024-01-06T12:12:56;5.70;;;4.03;;
10134;SDS011;5107;48.850;8.924;2024-01-06T12:15:23;4.53;;;3.70;;
10134;SDS011;5107;48.850;8.924;2024-01-06T12:17:49;4.37;;;3.83;;
10134;SDS011;5107;48.850;8.924;2024-01-06T12:20:14;4.30;;;3.90;;
10134;SDS011;5107;48.850;8.924;2024-01-06T12:22:40;4.97;;;4.40;;
10134;SDS011;5107;48.850;8.924;2024-01-06T12:25:05;5.17;;;4.60;;
10134;SDS011;5107;48.850;8.924;2024-01-06T12:27:31;6.77;;;4.87;;
10134;SDS011;5107;48.850;8.924;2024-01-06T12:29:57;4.80;;;4.30;;
10134;SDS011;5107;48.850;8.924;2024-01-06T12:32:23;4.70;;;4.20;;
10134;SDS011;5107;48.850;8.924;2024-01-06T12:34:48;4.57;;;3.93;;
10134;SDS011;5107;48.850;8.924;2024-01-06T12:37:14;5.80;;;4.37;;
10134;SDS011;5107;48.850;8.924;2024-01-06T12:39:39;4.20;;;3.80;;
10134;SDS011;5107;48.850;8.924;2024-01-06T12:42:07;6.30;;;4.47;;
10134;SDS011;5107;48.850;8.924;2024-01-06T12:44:33;5.20;;;4.50;;
10134;SDS011;5107;48.850;8.924;2024-01-06T12:47:01;5.23;;;4.47;;
10134;SDS011;5107;48.850;8.924;2024-01-06T12:49:27;5.03;;;3.73;;
10134;SDS011;5107;48.850;8.924;2024-01-06T12:51:54;5.20;;;3.80;;
10134;SDS011;5107;48.850;8.924;2024-01-06T12:54:19;5.30;;;3.97;;
10134;SDS011;5107;48.850;8.924;2024-01-06T12:56:47;6.03;;;3.80;;
10134;SDS011;5107;48.850;8.924;2024-01-06T12:59:12;5.27;;;4.00;;
10134;SDS011;5107;48.850;8.924;2024-01-06T13:01:38;4.60;;;4.00;;
10134;SDS011;5107;48.850;8.924;2024-01-06T13:04:04;4.77;;;4.27;;
10134;SDS011;5107;48.850;8.924;2024-01-06T13:06:29;4.73;;;4.30;;
10134;SDS011;5107;48.850;8.924;2024-01-06T13:08:55;4.10;;;3.70;;
10134;SDS011;5107;48.850;8.924;2024-01-06T13:11:21;3.70;;;3.30;;
10134;SDS011;5107;48.850;8.924;2024-01-06T13:13:46;3.30;;;3.00;;
10134;SDS011;5107;48.850;8.924;2024-01-06T13:16:12;4.20;;;3.30;;
10134;SDS011;5107;48.850;8.924;2024-01-06T13:18:37;3.60;;;2.93;;
10134;SDS011;5107;48.850;8.924;2024-01-06T13:21:02;4.40;;;3.30;;
10134;SDS011;5107;48.850;8.924;2024-01-06T13:23:28;4.73;;;3.47;;
10134;SDS011;5107;48.850;8.924;2024-01-06T13:25:54;4.63;;;3.83;;
10134;SDS011;5107;48.850;8.924;2024-01-06T13:28:19;4.70;;;3.73;;
10134;SDS011;5107;48.850;8.924;2024-01-06T13:30:44;5.63;;;4.00;;
10134;SDS011;5107;48.850;8.924;2024-01-06T13:33:10;4.50;;;3.67;;
10134;SDS011;5107;48.850;8.924;2024-01-06T13:35:35;4.60;;;3.20;;
10134;SDS011;5107;48.850;8.924;2024-01-06T13:38:04;4.47;;;3.80;;
10134;SDS011;5107;48.850;8.924;2024-01-06T13:40:29;5.03;;;3.90;;
10134;SDS011;5107;48.850;8.924;2024-01-06T13:42:55;4.37;;;3.97;;
10134;SDS011;5107;48.850;8.924;2024-01-06T13:45:20;5.83;;;4.50;;
10134;SDS011;5107;48.850;8.924;2024-01-06T13:47:46;6.33;;;4.50;;
10134;SDS011;5107;48.850;8.924;2024-01-06T13:50:12;4.47;;;4.07;;
10134;SDS011;5107;48.850;8.924;2024-01-06T13:52:39;5.30;;;3.90;;
10134;SDS011;5107;48.850;8.924;2024-01-06T13:55:05;4.90;;;4.43;;
10134;SDS011;5107;48.850;8.924;2024-01-06T13:57:31;5.83;;;4.90;;
10134;SDS011;5107;48.850;8.924;2024-01-06T13:59:57;4.97;;;4.47;;
10134;SDS011;5107;48.850;8.924;2024-01-06T14:02:22;5.63;;;5.03;;
10134;SDS011;5107;48.850;8.924;2024-01-06T14:04:48;5.63;;;4.83;;
10134;SDS011;5107;48.850;8.924;2024-01-06T14:07:13;6.90;;;5.53;;
10134;SDS011;5107;48.850;8.924;2024-01-06T14:09:39;6.70;;;5.67;;
10134;SDS011;5107;48.850;8.924;2024-01-06T14:12:04;7.77;;;5.13;;
10134;SDS011;5107;48.850;8.924;2024-01-06T14:14:33;6.27;;;4.90;;
10134;SDS011;5107;48.850;8.924;2024-01-06T14:16:58;9.13;;;5.17;;
10134;SDS011;5107;48.850;8.924;2024-01-06T14:19:24;6.37;;;5.53;;
10134;SDS011;5107;48.850;8.924;2024-01-06T14:21:50;7.30;;;5.70;;
10134;SDS011;5107;48.850;8.924;2024-01-06T14:24:16;6.80;;;5.60;;
10134;SDS011;5107;48.850;8.924;2024-01-06T14:26:48;6.97;;;5.97;;
10134;SDS011;5107;48.850;8.924;2024-01-06T14:29:14;9.23;;;6.50;;
10134;SDS011;5107;48.850;8.924;2024-01-06T14:31:41;9.23;;;6.30;;
10134;SDS011;5107;48.850;8.924;2024-01-06T14:34:09;9.13;;;6.93;;
10134;SDS011;5107;48.850;8.924;2024-01-06T14:36:35;8.10;;;5.90;;
10134;SDS011;5107;48.850;8.924;2024-01-06T14:39:00;7.67;;;6.23;;
10134;SDS011;5107;48.850;8.924;2024-01-06T14:41:26;7.20;;;5.63;;
10134;SDS011;5107;48.850;8.924;2024-01-06T14:43:53;9.20;;;6.07;;
10134;SDS011;5107;48.850;8.924;2024-01-06T14:46:19;8.27;;;6.57;;
10134;SDS011;5107;48.850;8.924;2024-01-06T14:48:44;9.27;;;6.77;;
10134;SDS011;5107;48.850;8.924;2024-01-06T14:51:09;9.20;;;6.53;;
10134;SDS011;5107;48.850;8.924;2024-01-06T14:53:35;11.60;;;7.43;;
10134;SDS011;5107;48.850;8.924;2024-01-06T14:56:00;24.07;;;14.57;;
10134;SDS011;5107;48.850;8.924;2024-01-06T14:58:26;10.90;;;8.33;;
10134;SDS011;5107;48.850;8.924;2024-01-06T15:00:51;9.20;;;6.73;;
10134;SDS011;5107;48.850;8.924;2024-01-06T15:03:17;8.67;;;6.70;;